createdAt,value
2023-05-10T00:01:46.903Z,13.30
2023-05-10T00:04:35.314Z,13.20
2023-05-10T00:07:22.734Z,13.20
2023-05-10T00:10:11.225Z,13.30
2023-05-10T00:12:58.406Z,13.20
2023-05-10T00:15:46.914Z,13.20
2023-05-10T00:18:35.004Z,13.20
2023-05-10T00:21:23.522Z,13.20
2023-05-10T00:24:10.693Z,13.20
2023-05-10T00:26:58.732Z,13.10
2023-05-10T00:29:46.408Z,13.10
2023-05-10T00:32:34.949Z,13.10
2023-05-10T00:35:22.728Z,13.20
2023-05-10T00:38:09.885Z,13.20
2023-05-10T00:40:57.949Z,13.20
2023-05-10T00:43:50.723Z,13.10
2023-05-10T00:46:38.435Z,13.10
2023-05-10T00:49:27.159Z,13.10
2023-05-10T00:52:15.470Z,13.10
2023-05-10T00:55:04.291Z,13.10
2023-05-10T00:57:54.013Z,13.00
2023-05-10T01:00:43.307Z,13.00
2023-05-10T01:03:32.396Z,13.00
2023-05-10T01:06:21.537Z,12.90
2023-05-10T01:09:09.044Z,12.90
2023-05-10T01:11:58.183Z,12.90
2023-05-10T01:14:45.531Z,12.80
2023-05-10T01:17:34.656Z,12.90
2023-05-10T01:20:21.845Z,12.80
2023-05-10T01:23:32.356Z,12.80
2023-05-10T01:26:53.414Z,12.80
2023-05-10T01:30:15.482Z,12.80
2023-05-10T01:33:12.445Z,12.80
2023-05-10T01:36:07.558Z,12.80
2023-05-10T01:39:02.458Z,12.80
2023-05-10T01:41:55.532Z,12.70
2023-05-10T01:44:51.768Z,12.70
2023-05-10T01:47:44.208Z,12.70
2023-05-10T01:50:35.603Z,12.70
2023-05-10T01:53:24.159Z,12.70
2023-05-10T01:56:13.646Z,12.60
2023-05-10T01:59:04.888Z,12.60
2023-05-10T02:01:53.385Z,12.60
2023-05-10T02:04:41.909Z,12.60
2023-05-10T02:07:33.330Z,12.60
2023-05-10T02:10:22.056Z,12.60
2023-05-10T02:13:11.561Z,12.60
2023-05-10T02:15:59.867Z,12.60
2023-05-10T02:18:49.667Z,12.60
2023-05-10T02:21:38.510Z,12.60
2023-05-10T02:24:29.987Z,12.60
2023-05-10T02:27:18.669Z,12.60
2023-05-10T02:30:09.075Z,12.60
2023-05-10T02:32:58.466Z,12.60
2023-05-10T02:35:47.062Z,12.60
2023-05-10T02:38:35.668Z,12.60
2023-05-10T02:41:25.143Z,12.60
2023-05-10T02:44:15.626Z,12.50
2023-05-10T02:47:02.810Z,12.60
2023-05-10T02:49:51.015Z,12.60
2023-05-10T02:52:44.824Z,12.60
2023-05-10T02:55:37.899Z,12.50
2023-05-10T02:58:27.512Z,12.50
2023-05-10T03:01:15.103Z,12.50
2023-05-10T03:04:02.716Z,12.50
2023-05-10T03:06:50.447Z,12.60
2023-05-10T03:09:38.116Z,12.60
2023-05-10T03:12:35.075Z,12.60
2023-05-10T03:15:33.753Z,12.60
2023-05-10T03:18:24.855Z,12.60
2023-05-10T03:21:14.606Z,12.50
2023-05-10T03:24:09.933Z,12.50
2023-05-10T03:27:03.200Z,12.50
2023-05-10T03:29:52.630Z,12.50
2023-05-10T03:32:41.954Z,12.50
2023-05-10T03:35:30.022Z,12.50
2023-05-10T03:38:17.171Z,12.50
2023-05-10T03:41:05.243Z,12.40
2023-05-10T03:43:53.899Z,12.50
2023-05-10T03:46:41.166Z,12.50
2023-05-10T03:49:30.411Z,12.50
2023-05-10T03:52:18.018Z,12.40
2023-05-10T03:55:07.393Z,12.50
2023-05-10T03:57:55.676Z,12.40
2023-05-10T04:00:46.673Z,12.40
2023-05-10T04:03:37.363Z,12.50
2023-05-10T04:06:27.544Z,12.50
2023-05-10T04:09:17.554Z,12.40
2023-05-10T04:12:05.207Z,12.50
2023-05-10T04:14:53.262Z,12.40
2023-05-10T04:17:40.709Z,12.40
2023-05-10T04:20:29.218Z,12.40
2023-05-10T04:23:17.695Z,12.50
2023-05-10T04:26:05.766Z,12.50
2023-05-10T04:28:53.389Z,12.50
2023-05-10T04:31:40.622Z,12.50
2023-05-10T04:34:28.655Z,12.50
2023-05-10T04:37:15.884Z,12.50
2023-05-10T04:40:06.754Z,12.50
2023-05-10T04:42:53.915Z,12.50
2023-05-10T04:45:41.938Z,12.50
2023-05-10T04:48:29.118Z,12.40
2023-05-10T04:51:17.117Z,12.40
2023-05-10T04:54:06.555Z,12.30
2023-05-10T04:56:56.505Z,12.30
2023-05-10T04:59:43.772Z,12.20
2023-05-10T05:02:32.262Z,12.20
2023-05-10T05:05:19.488Z,12.10
2023-05-10T05:08:07.305Z,12.00
2023-05-10T05:10:54.509Z,11.90
2023-05-10T05:13:43.490Z,11.90
2023-05-10T05:16:32.914Z,11.90
2023-05-10T05:19:20.520Z,11.90
2023-05-10T05:22:09.070Z,12.00
2023-05-10T05:24:57.951Z,11.90
2023-05-10T05:27:45.215Z,11.80
2023-05-10T05:30:34.651Z,11.70
2023-05-10T05:33:22.260Z,11.70
2023-05-10T05:36:10.313Z,11.70
2023-05-10T05:38:57.954Z,11.70
2023-05-10T05:41:45.232Z,11.50
2023-05-10T05:44:33.290Z,11.40
2023-05-10T05:47:21.860Z,11.40
2023-05-10T05:50:11.069Z,11.40
2023-05-10T05:52:58.321Z,11.40
2023-05-10T05:55:54.018Z,11.50
2023-05-10T05:58:41.240Z,11.60
2023-05-10T06:01:28.485Z,11.70
2023-05-10T06:04:17.530Z,11.70
2023-05-10T06:07:05.721Z,11.80
2023-05-10T06:09:52.890Z,11.80
2023-05-10T06:12:41.060Z,11.90
2023-05-10T06:15:28.517Z,12.00
2023-05-10T06:18:15.681Z,12.00
2023-05-10T06:21:04.408Z,12.00
2023-05-10T06:23:52.516Z,12.10
2023-05-10T06:26:39.615Z,12.10
2023-05-10T06:29:27.726Z,12.20
2023-05-10T06:32:15.386Z,12.40
2023-05-10T06:35:02.928Z,12.50
2023-05-10T06:37:52.235Z,12.60
2023-05-10T06:40:42.932Z,12.70
2023-05-10T06:43:30.068Z,12.90
2023-05-10T06:46:18.255Z,13.00
2023-05-10T06:49:05.557Z,13.20
2023-05-10T06:51:53.347Z,13.20
2023-05-10T06:54:41.980Z,13.30
2023-05-10T06:57:31.823Z,13.20
2023-05-10T07:00:21.236Z,13.20
2023-05-10T07:03:09.129Z,13.30
2023-05-10T07:06:02.163Z,13.40
2023-05-10T07:08:49.966Z,13.70
2023-05-10T07:11:38.518Z,13.80
2023-05-10T07:14:26.581Z,14.10
2023-05-10T07:17:14.258Z,14.30
2023-05-10T07:20:01.502Z,14.30
2023-05-10T07:22:49.137Z,14.30
2023-05-10T07:25:36.300Z,14.30
2023-05-10T07:28:25.786Z,14.20
2023-05-10T07:31:13.357Z,14.30
2023-05-10T07:34:00.564Z,14.40
2023-05-10T07:36:48.723Z,14.50
2023-05-10T07:39:36.331Z,14.50
2023-05-10T07:42:24.385Z,14.50
2023-05-10T07:45:13.449Z,14.50
2023-05-10T07:48:00.779Z,14.70
2023-05-10T07:50:48.858Z,14.90
2023-05-10T07:53:36.350Z,15.00
2023-05-10T07:56:30.885Z,15.00
2023-05-10T07:59:18.818Z,15.10
2023-05-10T08:02:08.197Z,15.10
2023-05-10T08:04:56.731Z,15.10
2023-05-10T08:07:44.816Z,14.90
2023-05-10T08:10:32.059Z,15.00
2023-05-10T08:13:20.089Z,15.10
2023-05-10T08:16:08.210Z,15.30
2023-05-10T08:18:57.856Z,15.30
2023-05-10T08:21:45.104Z,15.10
2023-05-10T08:24:33.105Z,14.80
2023-05-10T08:27:20.770Z,14.50
2023-05-10T08:30:09.378Z,14.30
2023-05-10T08:32:57.489Z,14.20
2023-05-10T08:35:46.420Z,14.20
2023-05-10T08:38:34.608Z,14.30
2023-05-10T08:41:22.358Z,14.50
2023-05-10T08:44:11.269Z,14.70
2023-05-10T08:47:00.353Z,14.70
2023-05-10T08:49:52.725Z,14.60
2023-05-10T08:52:42.854Z,14.40
2023-05-10T08:55:30.182Z,14.20
2023-05-10T08:58:18.630Z,14.30
2023-05-10T09:01:07.049Z,15.20
2023-05-10T09:03:54.749Z,15.70
2023-05-10T09:06:43.181Z,15.50
2023-05-10T09:09:33.008Z,15.20
2023-05-10T09:12:20.671Z,15.10
2023-05-10T09:15:10.597Z,15.00
2023-05-10T09:17:59.539Z,14.80
2023-05-10T09:20:46.648Z,14.80
2023-05-10T09:23:34.937Z,15.00
2023-05-10T09:26:25.197Z,15.10
2023-05-10T09:29:15.173Z,15.30
2023-05-10T09:32:02.992Z,15.40
2023-05-10T09:34:51.542Z,15.30
2023-05-10T09:37:42.347Z,15.30
2023-05-10T09:40:31.482Z,15.30
2023-05-10T09:43:20.921Z,15.30
2023-05-10T09:46:11.284Z,15.50
2023-05-10T09:48:59.245Z,15.60
2023-05-10T09:51:47.468Z,15.70
2023-05-10T09:54:35.338Z,16.10
2023-05-10T09:57:25.223Z,16.50
2023-05-10T10:00:18.494Z,17.10
2023-05-10T10:03:07.364Z,17.60
2023-05-10T10:05:56.906Z,17.50
2023-05-10T10:08:45.165Z,17.10
2023-05-10T10:11:32.510Z,17.00
2023-05-10T10:14:21.637Z,16.70
2023-05-10T10:17:11.181Z,17.20
2023-05-10T10:20:00.452Z,17.70
2023-05-10T10:22:49.217Z,18.00
2023-05-10T10:25:36.873Z,18.30
2023-05-10T10:28:36.226Z,18.60
2023-05-10T10:31:32.533Z,18.70
2023-05-10T10:34:28.638Z,18.60
2023-05-10T10:37:16.411Z,18.80
2023-05-10T10:40:24.329Z,18.50
2023-05-10T10:43:27.027Z,18.10
2023-05-10T10:46:15.931Z,17.40
2023-05-10T10:49:11.454Z,17.00
2023-05-10T10:52:30.908Z,16.50
2023-05-10T10:55:23.682Z,15.50
2023-05-10T10:58:10.935Z,14.50
2023-05-10T11:01:16.027Z,14.10
2023-05-10T11:04:21.340Z,13.90
2023-05-10T11:07:21.122Z,13.90
2023-05-10T11:10:09.978Z,13.80
2023-05-10T11:13:05.690Z,13.70
2023-05-10T11:15:53.111Z,13.50
2023-05-10T11:18:41.463Z,13.40
2023-05-10T11:21:29.190Z,13.30
2023-05-10T11:24:20.603Z,13.20
2023-05-10T11:27:07.957Z,13.00
2023-05-10T11:29:55.987Z,12.90
2023-05-10T11:32:44.027Z,12.70
2023-05-10T11:35:41.668Z,12.60
2023-05-10T11:38:34.241Z,12.30
2023-05-10T11:41:25.029Z,12.10
2023-05-10T11:44:12.830Z,12.20
2023-05-10T11:47:00.801Z,12.10
2023-05-10T11:49:49.729Z,12.00
2023-05-10T11:52:38.381Z,12.10
2023-05-10T11:55:26.420Z,12.00
2023-05-10T11:58:15.421Z,12.00
2023-05-10T12:01:04.029Z,11.90
2023-05-10T12:03:52.528Z,11.90
2023-05-10T12:06:42.307Z,11.90
2023-05-10T12:09:42.747Z,11.90
2023-05-10T12:12:38.722Z,12.00
2023-05-10T12:15:28.983Z,12.00
2023-05-10T12:18:25.966Z,12.00
2023-05-10T12:21:13.753Z,12.10
2023-05-10T12:24:04.438Z,12.10
2023-05-10T12:26:51.679Z,12.00
2023-05-10T12:29:45.880Z,12.10
2023-05-10T12:32:40.999Z,12.10
2023-05-10T12:35:32.784Z,12.00
2023-05-10T12:38:29.700Z,12.00
2023-05-10T12:41:19.548Z,12.20
2023-05-10T12:44:06.926Z,12.20
2023-05-10T12:46:54.961Z,12.20
2023-05-10T12:49:43.645Z,12.30
2023-05-10T12:52:33.508Z,12.30
2023-05-10T12:55:20.644Z,12.30
2023-05-10T12:58:08.729Z,12.20
2023-05-10T13:00:57.407Z,12.30
2023-05-10T13:03:45.554Z,12.30
2023-05-10T13:06:33.994Z,12.50
2023-05-10T13:09:22.218Z,12.50
2023-05-10T13:12:10.258Z,12.50
2023-05-10T13:14:58.413Z,12.60
2023-05-10T13:17:46.820Z,12.50
2023-05-10T13:20:33.956Z,12.60
2023-05-10T13:23:23.380Z,12.60
2023-05-10T13:26:11.056Z,12.50
2023-05-10T13:28:58.897Z,12.40
2023-05-10T13:31:47.088Z,12.40
2023-05-10T13:34:34.342Z,12.40
2023-05-10T13:37:22.881Z,12.30
2023-05-10T13:40:11.785Z,12.30
2023-05-10T13:43:00.296Z,12.40
2023-05-10T13:45:48.070Z,12.40
2023-05-10T13:48:38.182Z,12.40
2023-05-10T13:51:26.131Z,12.30
2023-05-10T13:54:14.496Z,12.20
2023-05-10T13:57:03.604Z,12.10
2023-05-10T13:59:51.393Z,12.10
2023-05-10T14:02:38.596Z,12.20
2023-05-10T14:05:27.109Z,12.20
2023-05-10T14:08:14.614Z,12.10
2023-05-10T14:11:02.969Z,12.20
2023-05-10T14:13:51.466Z,12.20
2023-05-10T14:16:39.510Z,12.20
2023-05-10T14:19:27.905Z,12.30
2023-05-10T14:22:16.222Z,12.30
2023-05-10T14:25:03.636Z,12.40
2023-05-10T14:27:52.335Z,12.30
2023-05-10T14:30:40.829Z,12.40
2023-05-10T14:33:28.836Z,12.30
2023-05-10T14:36:16.489Z,12.20
2023-05-10T14:39:04.373Z,12.20
2023-05-10T14:41:53.039Z,12.20
2023-05-10T14:44:41.186Z,12.20
2023-05-10T14:47:29.905Z,12.10
2023-05-10T14:50:35.217Z,12.10
2023-05-10T14:53:24.815Z,11.90
2023-05-10T14:56:12.021Z,11.90
2023-05-10T14:59:00.815Z,12.00
2023-05-10T15:01:48.308Z,11.90
2023-05-10T15:04:38.381Z,11.90
2023-05-10T15:07:26.015Z,11.90
2023-05-10T15:10:15.336Z,11.80
2023-05-10T15:13:02.721Z,11.80
2023-05-10T15:15:50.784Z,11.80
2023-05-10T15:18:37.896Z,11.80
2023-05-10T15:21:27.556Z,11.80
2023-05-10T15:24:15.466Z,11.80
2023-05-10T15:27:03.630Z,11.80
2023-05-10T15:29:50.805Z,11.70
2023-05-10T15:32:40.765Z,11.70
2023-05-10T15:35:28.104Z,11.60
2023-05-10T15:38:17.018Z,11.60
2023-05-10T15:41:04.319Z,11.50
2023-05-10T15:43:52.367Z,11.40
2023-05-10T15:46:39.643Z,11.50
2023-05-10T15:49:27.687Z,11.50
2023-05-10T15:52:15.242Z,11.50
2023-05-10T15:55:05.601Z,11.50
2023-05-10T15:57:53.336Z,11.50
2023-05-10T16:00:40.982Z,11.50
2023-05-10T16:03:28.211Z,11.50
2023-05-10T16:06:16.313Z,11.40
2023-05-10T16:09:03.628Z,11.40
2023-05-10T16:11:53.104Z,11.40
2023-05-10T16:14:40.774Z,11.40
2023-05-10T16:17:28.517Z,11.40
2023-05-10T16:20:15.773Z,11.40
2023-05-10T16:23:05.551Z,11.40
2023-05-10T16:25:52.776Z,11.40
2023-05-10T16:28:41.394Z,11.50
2023-05-10T16:31:29.226Z,11.40
2023-05-10T16:34:16.645Z,11.40
2023-05-10T16:37:04.239Z,11.40
2023-05-10T16:39:51.394Z,11.40
2023-05-10T16:42:39.059Z,11.30
2023-05-10T16:45:27.499Z,11.30
2023-05-10T16:48:15.224Z,11.30
2023-05-10T16:51:02.962Z,11.20
2023-05-10T16:53:50.520Z,11.10
2023-05-10T16:56:37.803Z,11.00
2023-05-10T16:59:25.483Z,11.00
2023-05-10T17:02:14.566Z,10.90
2023-05-10T17:05:01.894Z,10.90
2023-05-10T17:07:49.882Z,10.90
2023-05-10T17:10:39.714Z,10.80
2023-05-10T17:13:27.860Z,10.80
2023-05-10T17:16:15.126Z,10.80
2023-05-10T17:19:03.758Z,10.60
2023-05-10T17:21:50.848Z,10.60
2023-05-10T17:24:38.396Z,10.50
2023-05-10T17:27:26.161Z,10.50
2023-05-10T17:30:13.887Z,10.50
2023-05-10T17:33:01.844Z,10.40
2023-05-10T17:35:50.635Z,10.40
2023-05-10T17:38:38.462Z,10.30
2023-05-10T17:41:25.673Z,10.30
2023-05-10T17:44:13.846Z,10.30
2023-05-10T17:47:00.987Z,10.30
2023-05-10T17:49:48.707Z,10.20
2023-05-10T17:52:37.215Z,10.20
2023-05-10T17:55:24.922Z,10.20
2023-05-10T17:58:12.471Z,10.30
2023-05-10T18:01:01.163Z,10.20
2023-05-10T18:03:49.398Z,10.20
2023-05-10T18:06:37.810Z,10.20
2023-05-10T18:09:26.326Z,10.10
2023-05-10T18:12:13.677Z,10.10
2023-05-10T18:15:00.801Z,10.10
2023-05-10T18:17:49.755Z,10.20
2023-05-10T18:20:37.680Z,10.20
2023-05-10T18:23:25.594Z,10.20
2023-05-10T18:26:15.017Z,10.20
2023-05-10T18:29:02.158Z,10.10
2023-05-10T18:31:49.721Z,10.10
2023-05-10T18:34:37.101Z,10.00
2023-05-10T18:37:24.681Z,10.00
2023-05-10T18:40:14.548Z,10.00
2023-05-10T18:43:04.707Z,10.00
2023-05-10T18:45:52.390Z,10.00
2023-05-10T18:48:40.664Z,9.90
2023-05-10T18:51:29.541Z,9.90
2023-05-10T18:54:17.437Z,9.90
2023-05-10T18:57:05.003Z,9.90
2023-05-10T18:59:53.572Z,9.80
2023-05-10T19:02:41.364Z,9.90
2023-05-10T19:05:31.486Z,9.80
2023-05-10T19:08:18.615Z,9.80
2023-05-10T19:11:06.238Z,9.80
2023-05-10T19:13:53.389Z,9.80
2023-05-10T19:16:42.780Z,9.80
2023-05-10T19:19:30.070Z,9.80
2023-05-10T19:22:28.342Z,9.70
2023-05-10T19:25:29.144Z,9.70
2023-05-10T19:28:17.168Z,9.60
2023-05-10T19:31:04.507Z,9.60
2023-05-10T19:33:54.328Z,9.60
2023-05-10T19:36:41.574Z,9.60
2023-05-10T19:39:30.820Z,9.60
2023-05-10T19:42:18.032Z,9.60
2023-05-10T19:45:07.718Z,9.50
2023-05-10T19:47:55.038Z,9.60
2023-05-10T19:50:43.939Z,9.60
2023-05-10T19:53:32.143Z,9.50
2023-05-10T19:56:20.596Z,9.50
2023-05-10T19:59:07.960Z,9.40
2023-05-10T20:01:56.327Z,9.40
2023-05-10T20:04:43.510Z,9.50
2023-05-10T20:07:32.057Z,9.50
2023-05-10T20:10:22.016Z,9.50
2023-05-10T20:13:09.930Z,9.30
2023-05-10T20:15:58.046Z,9.40
2023-05-10T20:18:46.550Z,9.40
2023-05-10T20:21:34.228Z,9.50
2023-05-10T20:24:23.339Z,9.50
2023-05-10T20:27:12.021Z,9.50
2023-05-10T20:29:59.506Z,9.40
2023-05-10T20:32:49.896Z,9.40
2023-05-10T20:35:37.063Z,9.40
2023-05-10T20:38:24.454Z,9.50
2023-05-10T20:41:13.950Z,9.40
2023-05-10T20:44:01.251Z,9.40
2023-05-10T20:46:49.425Z,9.40
2023-05-10T20:49:38.421Z,9.40
2023-05-10T20:52:25.730Z,9.30
2023-05-10T20:55:15.303Z,9.30
2023-05-10T20:58:05.163Z,9.30
2023-05-10T21:00:53.408Z,9.30
2023-05-10T21:03:41.361Z,9.30
2023-05-10T21:06:31.752Z,9.20
2023-05-10T21:09:19.094Z,9.20
2023-05-10T21:12:06.767Z,9.20
2023-05-10T21:14:56.256Z,9.20
2023-05-10T21:17:44.229Z,9.20
2023-05-10T21:20:31.945Z,9.20
2023-05-10T21:23:19.209Z,9.20
2023-05-10T21:26:06.863Z,9.20
2023-05-10T21:28:54.212Z,9.20
2023-05-10T21:31:43.682Z,9.10
2023-05-10T21:34:31.079Z,9.10
2023-05-10T21:37:19.184Z,9.10
2023-05-10T21:40:07.063Z,9.00
2023-05-10T21:42:55.067Z,9.00
2023-05-10T21:45:42.741Z,8.90
2023-05-10T21:48:31.255Z,8.90
2023-05-10T21:51:18.916Z,8.90
2023-05-10T21:54:06.182Z,8.90
2023-05-10T21:56:54.295Z,8.90
2023-05-10T21:59:41.986Z,8.90
2023-05-10T22:02:29.500Z,8.90
2023-05-10T22:05:18.757Z,8.90
2023-05-10T22:08:07.506Z,8.90
2023-05-10T22:10:54.765Z,8.90
2023-05-10T22:13:42.439Z,8.80
2023-05-10T22:16:29.808Z,8.80
2023-05-10T22:19:17.960Z,8.80
2023-05-10T22:22:06.523Z,8.80
2023-05-10T22:24:54.626Z,8.70
2023-05-10T22:27:41.824Z,8.80
2023-05-10T22:30:32.196Z,8.80
2023-05-10T22:33:20.638Z,8.70
2023-05-10T22:36:09.928Z,8.70
2023-05-10T22:38:58.446Z,8.60
2023-05-10T22:41:46.515Z,8.60
2023-05-10T22:44:33.738Z,8.60
2023-05-10T22:47:21.883Z,8.60
2023-05-10T22:50:09.512Z,8.60
2023-05-10T22:52:57.666Z,8.50
2023-05-10T22:55:47.065Z,8.50
2023-05-10T22:58:35.347Z,8.50
2023-05-10T23:01:23.199Z,8.50
2023-05-10T23:04:10.969Z,8.50
2023-05-10T23:06:58.834Z,8.40
2023-05-10T23:09:47.106Z,8.50
2023-05-10T23:12:35.634Z,8.50
2023-05-10T23:15:23.808Z,8.50
2023-05-10T23:18:11.084Z,8.50
2023-05-10T23:20:59.192Z,8.40
2023-05-10T23:23:46.445Z,8.40
2023-05-10T23:26:34.715Z,8.30
2023-05-10T23:29:26.087Z,8.40
2023-05-10T23:32:14.248Z,8.30
2023-05-10T23:35:01.327Z,8.30
2023-05-10T23:37:50.120Z,8.30
2023-05-10T23:40:37.305Z,8.30
2023-05-10T23:43:25.878Z,8.30
2023-05-10T23:46:14.414Z,8.30
2023-05-10T23:49:02.533Z,8.30
2023-05-10T23:51:49.769Z,8.40
2023-05-10T23:54:37.920Z,8.30
2023-05-10T23:57:25.130Z,8.30
